Time;durP1;ratioP1;P1;durP2;ratioP2;P2;SDS_P1;SDS_P2;PMS_P1;PMS_P2;Temp;Humidity;BMP_temperature;BMP_pressure;BME280_temperature;BME280_humidity;BME280_pressure;Samples;Min_cycle;Max_cycle;Signal;HPM_P1;HPM_P2
2022/01/21 00:01:07;;;;;;;;;;;;;;;1.26;82.58;102513.69;5052174;27;19944;-68
2022/01/21 00:03:33;;;;;;;;;;;;;;;1.18;83.35;102513.88;5052193;27;19994;-69
2022/01/21 00:05:58;;;;;;;;;;;;;;;1.25;82.96;102513.72;5018379;27;20012;-69
2022/01/21 00:08:23;;;;;;;;;;;;;;;1.20;83.28;102524.25;5052528;27;19915;-69
2022/01/21 00:10:50;;;;;;;;;;;;;;;1.16;83.40;102527.81;5055142;27;19947;-70
2022/01/21 00:13:33;;;;;;;;;;;;;;;1.18;83.55;102518.22;5054910;27;19975;-69
2022/01/21 00:15:58;;;;;;;;;;;;;;;1.24;83.44;102522.44;5035957;27;20468;-69
2022/01/21 00:18:23;;;;;;;;;;;;;;;1.26;82.55;102516.31;5053352;27;19900;-69
2022/01/21 00:31:44;;;;;;;;;;;;;;;1.09;83.01;102537.50;5054694;27;20262;-69
2022/01/21 00:34:10;;;;;;;;;;;;;;;1.03;83.40;102538.50;5034598;27;19907;-68
2022/01/21 00:36:36;;;;;;;;;;;;;;;1.13;83.91;102536.56;5049045;27;20411;-68
2022/01/21 00:39:01;;;;;;;;;;;;;;;1.15;83.32;102536.53;5030332;27;20808;-70
2022/01/21 00:41:30;;;;;;;;;;;;;;;1.18;83.02;102526.91;5017206;27;19914;-69
2022/01/21 00:43:55;;;;;;;;;;;;;;;1.07;82.92;102522.78;5036389;27;19903;-68
2022/01/21 00:46:21;;;;;;;;;;;;;;;1.03;83.95;102537.66;5053007;27;20671;-69
2022/01/21 00:48:47;;;;;;;;;;;;;;;1.17;83.70;102546.03;5053607;27;20450;-69
2022/01/21 00:51:12;;;;;;;;;;;;;;;1.11;83.56;102540.09;5052643;27;20143;-68
2022/01/21 00:53:37;;;;;;;;;;;;;;;1.25;83.07;102535.44;5029388;27;19979;-69
2022/01/21 00:56:02;;;;;;;;;;;;;;;1.21;83.12;102549.44;5013502;27;19914;-69
2022/01/21 00:58:27;;;;;;;;;;;;;;;1.08;83.26;102555.81;5053294;27;19907;-69
2022/01/21 01:00:53;;;;;;;;;;;;;;;1.10;83.37;102567.03;5033587;27;20332;-68
2022/01/21 01:03:19;;;;;;;;;;;;;;;1.10;83.43;102564.44;5052289;27;20768;-68
2022/01/21 01:05:45;;;;;;;;;;;;;;;1.10;83.64;102567.91;5053296;27;20061;-68
2022/01/21 01:08:10;;;;;;;;;;;;;;;1.14;83.45;102563.47;5007941;27;20451;-70
2022/01/21 01:11:17;;;;;;;;;;;;;;;1.17;83.89;102550.38;5033353;27;20069;-67
2022/01/21 01:21:59;;;;;;;;;;;;;;;1.17;83.07;102556.47;4982093;28;19919;-67
2022/01/21 01:29:52;;;;;;;;;;;;;;;1.19;83.08;102554.69;5052038;27;19903;-70
2022/01/21 01:32:17;;;;;;;;;;;;;;;1.25;83.08;102558.06;5019367;27;20019;-67
2022/01/21 01:34:42;;;;;;;;;;;;;;;1.15;82.86;102546.97;5037167;27;19929;-66
2022/01/21 01:37:15;;;;;;;;;;;;;;;1.16;83.11;102548.69;5045659;27;19907;-66
2022/01/21 01:39:45;;;;;;;;;;;;;;;1.16;82.87;102544.31;5053749;27;19918;-67
2022/01/21 01:42:36;;;;;;;;;;;;;;;1.11;82.64;102550.50;5052463;27;19916;-68
2022/01/21 01:50:24;;;;;;;;;;;;;;;1.06;82.87;102544.53;5038358;27;19930;-69
2022/01/21 01:52:50;;;;;;;;;;;;;;;1.01;82.76;102540.25;5034431;27;20028;-69
2022/01/21 01:55:15;;;;;;;;;;;;;;;1.01;83.36;102548.09;5051218;27;19992;-68
2022/01/21 01:57:40;;;;;;;;;;;;;;;0.91;83.56;102570.00;5051675;27;20022;-66
2022/01/21 02:00:06;;;;;;;;;;;;;;;0.85;84.02;102559.72;5051875;27;20036;-67
2022/01/21 02:02:31;;;;;;;;;;;;;;;0.84;84.16;102552.78;5035094;27;19908;-69
2022/01/21 02:04:56;;;;;;;;;;;;;;;0.96;83.90;102549.94;5050486;27;19951;-70
2022/01/21 02:07:22;;;;;;;;;;;;;;;0.84;84.29;102557.97;5007618;27;20000;-69
2022/01/21 02:09:47;;;;;;;;;;;;;;;1.00;84.28;102551.59;5051856;27;19912;-67
2022/01/21 02:12:13;;;;;;;;;;;;;;;0.99;83.73;102546.41;5032817;27;19934;-67
2022/01/21 02:14:47;;;;;;;;;;;;;;;1.01;83.90;102535.03;5034050;27;19908;-67
2022/01/21 02:17:24;;;;;;;;;;;;;;;1.12;83.65;102537.44;5053063;27;19923;-68
2022/01/21 02:22:38;;;;;;;;;;;;;;;1.11;83.38;102542.69;5048097;27;20250;-67
2022/01/21 02:25:15;;;;;;;;;;;;;;;1.08;83.45;102537.56;5052100;27;19919;-68
2022/01/21 02:27:41;;;;;;;;;;;;;;;1.09;83.08;102547.94;5050825;27;19952;-68
2022/01/21 02:30:07;;;;;;;;;;;;;;;1.00;82.86;102549.00;5056476;27;20011;-68
2022/01/21 02:32:32;;;;;;;;;;;;;;;1.01;83.53;102553.28;5072435;27;19927;-68
2022/01/21 02:34:58;;;;;;;;;;;;;;;0.95;83.61;102553.44;5050527;27;20760;-68
2022/01/21 02:37:23;;;;;;;;;;;;;;;0.98;83.70;102549.91;5048421;27;20039;-67
2022/01/21 02:39:48;;;;;;;;;;;;;;;0.89;83.51;102552.69;5014450;27;19904;-68
2022/01/21 02:42:14;;;;;;;;;;;;;;;0.95;84.27;102553.44;5031445;27;20731;-68
2022/01/21 02:44:39;;;;;;;;;;;;;;;1.05;83.83;102559.31;5031977;27;19967;-68
2022/01/21 02:47:05;;;;;;;;;;;;;;;0.98;83.93;102561.19;5050866;27;19923;-68
2022/01/21 02:49:30;;;;;;;;;;;;;;;1.03;83.76;102553.28;5034097;27;20868;-68
2022/01/21 02:51:56;;;;;;;;;;;;;;;1.07;83.92;102551.47;5053905;27;19931;-68
2022/01/21 02:54:21;;;;;;;;;;;;;;;1.13;84.03;102561.75;5051230;27;19914;-68
2022/01/21 02:56:47;;;;;;;;;;;;;;;1.14;83.64;102566.09;5031216;27;19963;-67
2022/01/21 02:59:12;;;;;;;;;;;;;;;1.19;83.34;102559.91;5033783;27;19913;-70
2022/01/21 03:01:38;;;;;;;;;;;;;;;1.19;83.47;102556.44;5032642;27;19962;-67
2022/01/21 03:04:04;;;;;;;;;;;;;;;1.22;83.05;102568.56;5052083;27;20086;-66
2022/01/21 03:06:29;;;;;;;;;;;;;;;1.28;83.61;102568.44;5029349;28;20321;-67
2022/01/21 03:08:57;;;;;;;;;;;;;;;1.32;82.90;102563.09;5046667;27;20193;-68
2022/01/21 03:11:23;;;;;;;;;;;;;;;1.25;83.40;102574.56;5031917;27;19918;-67
2022/01/21 03:13:48;;;;;;;;;;;;;;;1.31;83.03;102574.44;5033647;27;19907;-66
2022/01/21 03:16:13;;;;;;;;;;;;;;;1.32;83.00;102580.50;5033124;27;19911;-67
2022/01/21 03:18:39;;;;;;;;;;;;;;;1.35;82.52;102572.63;5013995;27;19910;-70
2022/01/21 03:21:04;;;;;;;;;;;;;;;1.41;82.50;102579.47;5050989;27;20980;-69
2022/01/21 03:23:30;;;;;;;;;;;;;;;1.27;82.71;102575.41;5031162;27;19907;-68
2022/01/21 03:25:55;;;;;;;;;;;;;;;1.30;82.59;102583.16;5050618;27;19956;-67
2022/01/21 03:28:20;;;;;;;;;;;;;;;1.23;83.05;102573.75;5053538;27;20207;-66
2022/01/21 03:30:45;;;;;;;;;;;;;;;1.19;83.29;102565.09;5035491;27;20448;-68
2022/01/21 03:33:11;;;;;;;;;;;;;;;1.29;83.07;102575.38;5053282;27;20590;-68
2022/01/21 03:35:36;;;;;;;;;;;;;;;1.10;83.32;102570.53;5034480;27;19940;-68
2022/01/21 03:38:01;;;;;;;;;;;;;;;1.25;83.20;102579.78;5023859;27;19963;-69
2022/01/21 03:40:26;;;;;;;;;;;;;;;1.27;83.10;102580.63;5052426;27;20000;-70
2022/01/21 03:42:51;;;;;;;;;;;;;;;1.26;83.24;102576.28;5052151;27;20003;-69
2022/01/21 03:45:17;;;;;;;;;;;;;;;1.22;83.25;102577.22;5034144;27;19971;-67
2022/01/21 03:47:42;;;;;;;;;;;;;;;1.23;83.52;102565.03;5051088;27;19959;-67
2022/01/21 03:52:51;;;;;;;;;;;;;;;1.15;83.63;102573.03;5057135;27;21030;-70
2022/01/21 03:55:17;;;;;;;;;;;;;;;1.17;83.73;102568.63;5017319;27;20023;-71
2022/01/21 03:57:42;;;;;;;;;;;;;;;1.11;84.07;102563.56;5037546;27;20790;-69
2022/01/21 04:00:08;;;;;;;;;;;;;;;1.09;83.90;102558.38;5034627;27;19899;-70
2022/01/21 04:02:33;;;;;;;;;;;;;;;1.09;83.92;102562.75;5017857;27;19975;-69
2022/01/21 04:04:58;;;;;;;;;;;;;;;1.11;84.33;102577.44;5053140;27;19908;-66
2022/01/21 04:07:24;;;;;;;;;;;;;;;1.08;84.15;102577.50;5050258;27;20020;-69
2022/01/21 04:09:49;;;;;;;;;;;;;;;1.17;83.49;102576.44;5040479;27;20555;-67
2022/01/21 04:12:14;;;;;;;;;;;;;;;1.18;83.52;102580.78;5051674;27;20409;-67
2022/01/21 04:14:41;;;;;;;;;;;;;;;1.17;83.85;102579.06;5017957;27;20487;-69
2022/01/21 04:17:06;;;;;;;;;;;;;;;1.15;83.54;102573.88;5051135;27;19940;-69
2022/01/21 04:19:32;;;;;;;;;;;;;;;1.16;83.94;102565.19;5055024;27;19903;-69
2022/01/21 04:21:57;;;;;;;;;;;;;;;1.16;84.36;102569.53;5054722;27;19907;-66
2022/01/21 04:24:22;;;;;;;;;;;;;;;1.14;83.99;102581.75;5052509;27;19903;-68
2022/01/21 04:26:47;;;;;;;;;;;;;;;1.13;84.30;102588.72;5056568;27;19915;-69
2022/01/21 04:29:13;;;;;;;;;;;;;;;1.16;84.64;102582.59;5055016;27;19996;-69
2022/01/21 04:31:38;;;;;;;;;;;;;;;1.31;84.42;102578.78;5042178;27;20373;-69
2022/01/21 04:34:03;;;;;;;;;;;;;;;1.28;84.12;102571.88;5057632;27;20208;-69
2022/01/21 04:36:28;;;;;;;;;;;;;;;1.24;83.88;102582.41;5047520;27;20220;-69
2022/01/21 04:38:57;;;;;;;;;;;;;;;1.22;84.52;102579.84;5050308;27;19907;-69
2022/01/21 04:41:41;;;;;;;;;;;;;;;1.28;84.35;102579.69;5035872;27;20227;-69
2022/01/21 04:47:17;;;;;;;;;;;;;;;1.45;83.54;102570.69;5054026;27;20254;-68
2022/01/21 04:49:38;;;;;;;;;;;;;;;1.34;83.82;102566.56;5038270;27;19968;-69
2022/01/21 04:52:04;;;;;;;;;;;;;;;1.37;83.78;102574.31;5031802;27;20043;-69
2022/01/21 04:54:33;;;;;;;;;;;;;;;1.25;83.95;102577.16;5009818;27;20089;-69
2022/01/21 04:56:58;;;;;;;;;;;;;;;1.22;84.05;102577.22;5040779;27;19899;-69
2022/01/21 04:59:23;;;;;;;;;;;;;;;1.11;84.23;102569.63;5065394;27;19916;-67
2022/01/21 05:01:49;;;;;;;;;;;;;;;1.08;84.21;102581.88;5060983;27;20039;-67
2022/01/21 05:04:14;;;;;;;;;;;;;;;1.13;84.29;102574.78;5055801;27;20074;-70
2022/01/21 05:06:40;;;;;;;;;;;;;;;1.07;84.20;102582.75;5024435;27;19912;-69
2022/01/21 05:09:06;;;;;;;;;;;;;;;0.99;84.30;102568.13;5030709;27;20327;-69
2022/01/21 05:11:36;;;;;;;;;;;;;;;0.98;85.06;102579.44;5053928;27;19955;-69
2022/01/21 05:14:13;;;;;;;;;;;;;;;0.96;84.88;102581.22;5037944;27;20227;-68
2022/01/21 05:16:45;;;;;;;;;;;;;;;1.00;84.97;102571.56;5020935;27;19914;-68
2022/01/21 05:19:15;;;;;;;;;;;;;;;1.02;85.10;102567.22;5051161;27;20322;-68
2022/01/21 05:21:40;;;;;;;;;;;;;;;1.07;85.05;102567.97;5030468;27;19907;-68
2022/01/21 05:24:05;;;;;;;;;;;;;;;1.18;84.61;102572.97;5021305;27;19960;-69
2022/01/21 05:26:36;;;;;;;;;;;;;;;1.16;84.38;102582.59;5034889;27;20031;-69
2022/01/21 05:29:02;;;;;;;;;;;;;;;1.11;84.93;102590.47;5040805;27;19907;-67
2022/01/21 05:31:27;;;;;;;;;;;;;;;1.20;84.48;102586.84;5052640;27;20065;-66
2022/01/21 05:33:53;;;;;;;;;;;;;;;1.15;84.65;102593.91;5051933;27;20678;-66
2022/01/21 05:36:18;;;;;;;;;;;;;;;1.08;85.05;102602.72;5050826;27;20598;-67
2022/01/21 05:38:43;;;;;;;;;;;;;;;1.25;84.72;102603.25;5048547;27;20492;-69
2022/01/21 05:41:08;;;;;;;;;;;;;;;1.33;84.12;102601.34;5035089;27;19991;-68
2022/01/21 05:43:34;;;;;;;;;;;;;;;1.35;84.12;102603.91;5046321;27;19912;-69
2022/01/21 05:48:43;;;;;;;;;;;;;;;1.30;83.70;102611.84;5044636;27;20206;-69
2022/01/21 05:51:09;;;;;;;;;;;;;;;1.37;84.20;102621.25;5055210;27;19956;-66
2022/01/21 05:53:34;;;;;;;;;;;;;;;1.32;84.03;102611.81;5055065;27;19927;-68
2022/01/21 05:56:02;;;;;;;;;;;;;;;1.30;83.92;102601.41;5020219;27;20032;-66
2022/01/21 05:58:27;;;;;;;;;;;;;;;1.28;84.09;102602.31;5054062;27;19914;-68
2022/01/21 06:00:52;;;;;;;;;;;;;;;1.41;83.97;102608.16;5054336;27;19907;-67
2022/01/21 06:03:17;;;;;;;;;;;;;;;1.39;83.49;102594.28;5027239;27;20222;-67
2022/01/21 06:05:43;;;;;;;;;;;;;;;1.40;83.46;102601.22;5056098;27;19948;-67
2022/01/21 06:08:08;;;;;;;;;;;;;;;1.45;83.48;102591.56;5049312;27;20230;-66
2022/01/21 06:10:33;;;;;;;;;;;;;;;1.40;83.36;102601.22;5047433;27;19907;-70
2022/01/21 06:12:58;;;;;;;;;;;;;;;1.30;83.27;102603.19;5052231;27;20154;-68
2022/01/21 06:15:24;;;;;;;;;;;;;;;1.29;83.63;102606.66;5052834;27;19907;-69
2022/01/21 06:17:49;;;;;;;;;;;;;;;1.28;83.85;102615.38;5018628;27;20853;-67
2022/01/21 06:20:14;;;;;;;;;;;;;;;1.28;83.98;102613.59;5023371;27;20005;-68
2022/01/21 06:22:40;;;;;;;;;;;;;;;1.29;83.95;102610.13;5033064;28;19922;-68
2022/01/21 06:25:05;;;;;;;;;;;;;;;1.33;83.59;102606.56;5022445;27;19911;-68
2022/01/21 06:27:32;;;;;;;;;;;;;;;1.35;83.89;102606.53;5058503;27;20906;-69
2022/01/21 06:29:57;;;;;;;;;;;;;;;1.38;84.08;102611.69;5053343;27;20265;-67
2022/01/21 06:32:22;;;;;;;;;;;;;;;1.45;83.78;102612.41;5052896;27;19923;-68
2022/01/21 06:34:49;;;;;;;;;;;;;;;1.49;83.74;102609.72;5055562;27;20168;-67
2022/01/21 06:37:14;;;;;;;;;;;;;;;1.45;83.85;102610.66;5026230;27;20021;-68
2022/01/21 06:39:40;;;;;;;;;;;;;;;1.46;83.54;102621.97;5054699;27;19914;-69
2022/01/21 06:42:05;;;;;;;;;;;;;;;1.48;83.75;102622.78;5062098;27;20058;-67
2022/01/21 06:44:30;;;;;;;;;;;;;;;1.48;84.18;102628.88;5053311;27;20120;-69
2022/01/21 06:46:55;;;;;;;;;;;;;;;1.45;83.84;102628.06;5030199;28;20165;-67
2022/01/21 06:49:20;;;;;;;;;;;;;;;1.44;84.14;102634.16;5033663;27;20023;-67
2022/01/21 06:51:47;;;;;;;;;;;;;;;1.50;83.65;102637.53;5052859;27;19903;-66
2022/01/21 06:54:13;;;;;;;;;;;;;;;1.55;83.47;102640.03;5046057;27;19913;-69
2022/01/21 06:56:38;;;;;;;;;;;;;;;1.52;83.43;102645.31;5053734;27;20261;-69
2022/01/21 06:59:03;;;;;;;;;;;;;;;1.52;83.24;102645.31;5052644;27;20765;-69
2022/01/21 07:01:29;;;;;;;;;;;;;;;1.60;83.29;102653.84;5037601;27;20788;-69
2022/01/21 07:03:54;;;;;;;;;;;;;;;1.61;83.61;102641.66;5035456;27;20100;-67
2022/01/21 07:06:19;;;;;;;;;;;;;;;1.65;83.40;102652.03;5052021;27;20837;-69
2022/01/21 07:08:44;;;;;;;;;;;;;;;1.55;83.22;102658.28;5047918;27;20615;-68
2022/01/21 07:11:10;;;;;;;;;;;;;;;1.63;83.33;102664.22;5054816;27;19929;-69
2022/01/21 07:13:35;;;;;;;;;;;;;;;1.59;83.63;102659.94;5054863;27;20302;-68
2022/01/21 07:16:00;;;;;;;;;;;;;;;1.62;83.35;102657.31;5054928;27;20008;-70
2022/01/21 07:18:27;;;;;;;;;;;;;;;1.54;83.64;102649.63;5056359;27;20397;-68
2022/01/21 07:20:52;;;;;;;;;;;;;;;1.66;83.43;102647.66;5052779;27;19914;-69
2022/01/21 07:23:17;;;;;;;;;;;;;;;1.53;83.09;102654.88;5028326;27;20158;-68
2022/01/21 07:25:42;;;;;;;;;;;;;;;1.48;83.45;102646.25;5052981;27;20436;-68
2022/01/21 07:28:09;;;;;;;;;;;;;;;1.47;83.66;102636.75;5054696;27;20301;-66
2022/01/21 07:30:34;;;;;;;;;;;;;;;1.45;83.79;102651.56;5035463;27;20641;-68
2022/01/21 07:32:59;;;;;;;;;;;;;;;1.57;84.23;102648.69;5051340;27;19925;-70
2022/01/21 07:35:24;;;;;;;;;;;;;;;1.67;83.64;102645.00;5034985;27;20261;-66
2022/01/21 07:37:49;;;;;;;;;;;;;;;1.63;83.70;102642.50;5043421;27;19911;-67
2022/01/21 07:40:15;;;;;;;;;;;;;;;1.64;83.81;102649.44;5018226;27;20430;-67
2022/01/21 07:42:40;;;;;;;;;;;;;;;1.70;83.61;102651.91;5048220;27;20298;-68
2022/01/21 07:45:05;;;;;;;;;;;;;;;1.64;83.91;102654.66;5033237;27;20691;-67
2022/01/21 07:47:30;;;;;;;;;;;;;;;1.63;83.67;102650.31;5052233;27;20219;-68
2022/01/21 07:49:55;;;;;;;;;;;;;;;1.73;83.61;102664.03;5039987;27;20036;-68
2022/01/21 07:52:21;;;;;;;;;;;;;;;1.70;83.25;102663.19;5056580;27;20008;-68
2022/01/21 07:54:46;;;;;;;;;;;;;;;1.66;83.63;102664.16;5078934;27;20201;-67
2022/01/21 07:57:12;;;;;;;;;;;;;;;1.68;83.78;102667.59;5066295;27;19940;-67
2022/01/21 07:59:38;;;;;;;;;;;;;;;1.74;83.78;102668.38;5057434;27;20255;-67
2022/01/21 08:02:03;;;;;;;;;;;;;;;1.70;83.52;102676.25;5038642;27;19914;-66
2022/01/21 08:04:28;;;;;;;;;;;;;;;1.64;83.92;102681.59;5054179;27;19907;-68
2022/01/21 08:06:53;;;;;;;;;;;;;;;1.72;83.58;102684.03;5048267;27;19940;-66
2022/01/21 08:09:23;;;;;;;;;;;;;;;1.79;83.63;102684.78;5051986;27;20004;-67
2022/01/21 08:11:49;;;;;;;;;;;;;;;1.76;83.05;102692.69;5052100;27;19934;-67
2022/01/21 08:14:14;;;;;;;;;;;;;;;1.71;83.28;102704.06;5056289;27;20778;-67
2022/01/21 08:16:39;;;;;;;;;;;;;;;1.80;83.20;102704.78;5054918;27;19990;-67
2022/01/21 08:19:05;;;;;;;;;;;;;;;1.76;83.60;102706.59;5055954;27;20004;-67
2022/01/21 08:21:30;;;;;;;;;;;;;;;1.81;83.27;102696.06;5057599;27;19913;-68
2022/01/21 08:23:56;;;;;;;;;;;;;;;1.84;82.75;102693.38;5063076;27;19911;-67
2022/01/21 08:26:23;;;;;;;;;;;;;;;1.84;83.04;102686.41;5058992;27;19971;-69
2022/01/21 08:28:49;;;;;;;;;;;;;;;1.90;82.74;102680.19;5077480;27;19963;-67
2022/01/21 08:31:14;;;;;;;;;;;;;;;1.98;82.78;102685.28;5079475;27;19903;-68
2022/01/21 08:33:39;;;;;;;;;;;;;;;1.99;82.89;102685.22;5066305;27;20027;-66
2022/01/21 08:36:07;;;;;;;;;;;;;;;1.99;82.41;102682.63;5079202;27;20076;-67
2022/01/21 08:38:32;;;;;;;;;;;;;;;2.00;82.25;102680.84;5031784;27;19915;-67
2022/01/21 08:40:57;;;;;;;;;;;;;;;2.06;81.67;102692.03;5059993;27;19968;-66
2022/01/21 08:43:23;;;;;;;;;;;;;;;2.04;81.76;102696.41;5040577;27;20436;-67
2022/01/21 08:45:48;;;;;;;;;;;;;;;2.03;81.71;102699.94;5041312;27;20814;-66
2022/01/21 08:48:13;;;;;;;;;;;;;;;1.98;81.50;102699.19;5025387;27;19983;-67
2022/01/21 08:50:39;;;;;;;;;;;;;;;2.01;81.62;102703.47;5043017;27;20069;-67
2022/01/21 08:53:35;;;;;;;;;;;;;;;2.08;82.06;102685.94;5061339;27;19926;-67
2022/01/21 08:55:52;;;;;;;;;;;;;;;2.01;81.76;102685.19;5048037;27;20452;-67
2022/01/21 08:58:17;;;;;;;;;;;;;;;2.04;81.86;102700.78;5039254;27;20000;-67
2022/01/21 09:00:42;;;;;;;;;;;;;;;1.98;82.03;102706.16;5061236;27;20039;-66
2022/01/21 09:03:07;;;;;;;;;;;;;;;1.97;81.93;102704.44;5065175;27;19907;-67
2022/01/21 09:05:32;;;;;;;;;;;;;;;1.97;81.91;102710.50;5067371;27;20017;-67
2022/01/21 09:07:58;;;;;;;;;;;;;;;2.01;82.18;102709.53;5064540;27;20020;-69
2022/01/21 09:10:23;;;;;;;;;;;;;;;2.09;81.92;102709.41;5066730;27;19971;-69
2022/01/21 09:12:48;;;;;;;;;;;;;;;2.16;81.86;102710.13;5060302;27;19922;-65
2022/01/21 09:15:13;;;;;;;;;;;;;;;2.18;81.56;102708.34;5056060;27;19914;-67
2022/01/21 09:17:39;;;;;;;;;;;;;;;2.39;81.13;102712.22;5053901;27;19907;-66
2022/01/21 09:20:05;;;;;;;;;;;;;;;2.38;81.03;102705.25;5056359;27;20459;-66
2022/01/21 09:22:30;;;;;;;;;;;;;;;2.45;80.81;102712.06;5055816;27;20188;-65
2022/01/21 09:24:55;;;;;;;;;;;;;;;2.40;80.58;102717.41;5053046;27;19907;-67
2022/01/21 09:27:20;;;;;;;;;;;;;;;2.50;80.97;102714.59;5055962;27;20147;-66
2022/01/21 09:29:46;;;;;;;;;;;;;;;2.59;79.93;102709.13;5054366;27;19907;-68
2022/01/21 09:32:11;;;;;;;;;;;;;;;2.62;80.36;102709.06;5058895;27;20183;-66
2022/01/21 09:34:36;;;;;;;;;;;;;;;2.62;80.11;102708.22;5034866;27;20263;-67
2022/01/21 09:37:04;;;;;;;;;;;;;;;2.70;80.46;102707.13;5048887;27;20413;-68
2022/01/21 09:39:30;;;;;;;;;;;;;;;2.88;79.56;102697.13;5056885;27;20125;-66
2022/01/21 09:41:57;;;;;;;;;;;;;;;2.91;79.29;102710.13;5030265;27;19907;-67
2022/01/21 09:44:22;;;;;;;;;;;;;;;2.93;78.78;102718.75;5058207;27;19921;-67
2022/01/21 09:46:49;;;;;;;;;;;;;;;2.87;78.57;102711.09;5054454;27;19919;-67
2022/01/21 09:49:26;;;;;;;;;;;;;;;2.99;79.18;102713.41;5052794;27;19997;-67
2022/01/21 09:52:02;;;;;;;;;;;;;;;2.92;79.21;102710.06;5033767;27;19956;-66
2022/01/21 09:54:29;;;;;;;;;;;;;;;2.83;78.97;102701.59;5047681;27;20738;-66
2022/01/21 09:56:54;;;;;;;;;;;;;;;2.83;79.13;102706.81;5053310;27;19907;-68
2022/01/21 09:59:20;;;;;;;;;;;;;;;2.74;79.18;102713.16;5056460;27;19952;-67
2022/01/21 10:01:48;;;;;;;;;;;;;;;2.84;79.04;102712.00;5055527;27;20057;-68
2022/01/21 10:04:13;;;;;;;;;;;;;;;2.83;79.70;102712.06;5039438;27;19914;-67
2022/01/21 10:06:38;;;;;;;;;;;;;;;2.88;79.21;102712.81;5055269;27;20760;-67
2022/01/21 10:09:04;;;;;;;;;;;;;;;2.91;79.63;102712.72;5028557;27;19965;-66
2022/01/21 10:11:29;;;;;;;;;;;;;;;2.84;79.26;102724.25;5057635;27;19959;-68
2022/01/21 10:13:55;;;;;;;;;;;;;;;3.00;79.47;102720.31;5054460;27;20737;-66
2022/01/21 10:16:20;;;;;;;;;;;;;;;2.90;78.59;102718.84;5056522;27;20249;-66
2022/01/21 10:19:01;;;;;;;;;;;;;;;2.99;79.40;102718.63;5056254;27;20413;-66
2022/01/21 10:21:30;;;;;;;;;;;;;;;2.95;79.44;102722.22;5055502;27;19955;-67
2022/01/21 10:23:56;;;;;;;;;;;;;;;3.07;79.19;102724.53;5053015;27;20316;-68
2022/01/21 10:26:23;;;;;;;;;;;;;;;3.21;79.09;102728.53;5050595;27;20003;-66
2022/01/21 10:28:53;;;;;;;;;;;;;;;3.23;78.71;102726.75;5077646;27;19925;-66
2022/01/21 10:31:18;;;;;;;;;;;;;;;3.08;79.58;102734.06;5074166;27;20005;-66
2022/01/21 10:33:44;;;;;;;;;;;;;;;3.08;78.92;102730.59;5058605;27;19985;-66
2022/01/21 10:36:12;;;;;;;;;;;;;;;3.12;79.15;102739.22;5078246;27;19995;-67
2022/01/21 10:38:59;;;;;;;;;;;;;;;3.10;79.07;102741.88;5027614;27;20090;-66
2022/01/21 10:41:29;;;;;;;;;;;;;;;3.27;79.04;102738.81;5042704;27;19903;-66
2022/01/21 10:44:06;;;;;;;;;;;;;;;3.26;78.35;102737.13;5040422;27;19913;-69
2022/01/21 10:46:32;;;;;;;;;;;;;;;3.13;78.31;102735.72;5058613;27;19986;-66
2022/01/21 10:49:01;;;;;;;;;;;;;;;3.06;78.75;102728.03;5048308;27;20218;-67
2022/01/21 10:51:28;;;;;;;;;;;;;;;3.22;78.74;102735.50;5053143;27;19903;-66
2022/01/21 10:53:53;;;;;;;;;;;;;;;3.36;78.79;102730.75;5061647;27;19931;-66
2022/01/21 10:56:19;;;;;;;;;;;;;;;3.52;78.80;102738.19;5046599;27;20114;-66
2022/01/21 10:58:50;;;;;;;;;;;;;;;3.59;79.00;102730.09;5066017;27;19903;-65
2022/01/21 11:01:21;;;;;;;;;;;;;;;3.48;78.19;102731.31;5047507;27;20473;-67
2022/01/21 11:04:04;;;;;;;;;;;;;;;3.56;77.69;102729.34;5063438;27;19914;-66
2022/01/21 11:06:38;;;;;;;;;;;;;;;3.48;78.04;102713.00;5041531;27;20004;-66
2022/01/21 11:09:17;;;;;;;;;;;;;;;3.68;77.98;102723.78;5020854;27;19980;-66
2022/01/21 11:11:43;;;;;;;;;;;;;;;3.74;77.87;102710.50;5026522;27;20016;-66
2022/01/21 11:14:12;;;;;;;;;;;;;;;3.93;77.26;102696.88;5008741;27;20095;-67
2022/01/21 11:16:39;;;;;;;;;;;;;;;3.85;77.15;102704.09;5045373;27;19903;-67
2022/01/21 11:19:10;;;;;;;;;;;;;;;3.89;76.72;102697.88;5026251;27;19914;-66
2022/01/21 11:21:38;;;;;;;;;;;;;;;3.99;77.09;102707.19;5035937;27;19918;-69
2022/01/21 11:24:04;;;;;;;;;;;;;;;4.06;76.54;102700.84;5063923;27;19918;-68
2022/01/21 11:26:30;;;;;;;;;;;;;;;4.15;76.17;102698.88;5046503;27;19971;-67
2022/01/21 11:28:55;;;;;;;;;;;;;;;4.10;76.17;102689.38;5028259;27;20202;-65
2022/01/21 11:31:20;;;;;;;;;;;;;;;4.29;75.84;102683.56;5063142;27;19914;-67
2022/01/21 11:33:46;;;;;;;;;;;;;;;4.39;75.83;102684.16;5062321;27;19927;-67
2022/01/21 11:36:11;;;;;;;;;;;;;;;4.40;74.83;102684.09;5045092;27;19908;-68
2022/01/21 11:38:37;;;;;;;;;;;;;;;4.36;75.04;102685.09;5042537;27;20605;-67
2022/01/21 11:41:03;;;;;;;;;;;;;;;4.48;75.78;102678.59;5059269;27;19918;-67
2022/01/21 11:43:30;;;;;;;;;;;;;;;4.42;75.77;102677.03;5064721;27;19916;-67
2022/01/21 11:51:30;;;;;;;;;;;;;;;4.38;76.05;102680.66;5042410;27;19911;-68
2022/01/21 11:53:59;;;;;;;;;;;;;;;4.34;76.15;102679.03;5061347;27;20162;-67
2022/01/21 11:56:30;;;;;;;;;;;;;;;4.35;75.96;102678.13;5046764;27;19903;-67
2022/01/21 11:59:04;;;;;;;;;;;;;;;4.33;75.90;102668.59;5064892;27;19908;-67
2022/01/21 12:01:46;;;;;;;;;;;;;;;4.25;76.23;102663.59;5065541;27;20007;-67
2022/01/21 12:04:11;;;;;;;;;;;;;;;4.53;75.28;102667.97;5046518;27;19975;-68
2022/01/21 12:06:36;;;;;;;;;;;;;;;4.43;75.64;102660.41;5040582;27;19907;-67
2022/01/21 12:09:05;;;;;;;;;;;;;;;4.34;75.70;102668.53;5059190;27;19918;-67
2022/01/21 12:11:35;;;;;;;;;;;;;;;4.39;76.79;102656.16;5037095;27;19956;-68
2022/01/21 12:14:03;;;;;;;;;;;;;;;4.41;76.48;102651.75;5032394;27;19939;-68
2022/01/21 12:16:46;;;;;;;;;;;;;;;4.43;76.22;102654.31;5047501;27;21171;-67
2022/01/21 12:19:20;;;;;;;;;;;;;;;4.36;76.48;102643.16;5047711;27;20247;-67
2022/01/21 12:21:46;;;;;;;;;;;;;;;4.47;76.28;102648.91;5034959;27;19912;-67
2022/01/21 12:24:11;;;;;;;;;;;;;;;4.50;76.38;102641.84;5035014;27;19922;-68
2022/01/21 12:26:53;;;;;;;;;;;;;;;4.42;76.46;102649.97;5069561;27;19911;-67
2022/01/21 12:29:19;;;;;;;;;;;;;;;4.46;77.27;102646.34;5045842;27;19911;-67
2022/01/21 12:31:58;;;;;;;;;;;;;;;4.43;77.49;102641.19;5063904;27;19979;-67
2022/01/21 12:34:24;;;;;;;;;;;;;;;4.42;76.91;102647.34;5049996;27;20862;-68
2022/01/21 12:36:54;;;;;;;;;;;;;;;4.51;76.85;102651.41;5058421;27;19907;-68
2022/01/21 12:39:38;;;;;;;;;;;;;;;4.61;76.68;102639.72;5045608;27;19939;-68
2022/01/21 12:42:21;;;;;;;;;;;;;;;4.70;77.03;102641.19;5065236;27;20755;-68
2022/01/21 12:44:47;;;;;;;;;;;;;;;4.59;76.38;102645.00;5067939;27;19976;-69
2022/01/21 12:47:31;;;;;;;;;;;;;;;4.56;76.78;102645.13;5045411;27;19923;-68
2022/01/21 12:49:58;;;;;;;;;;;;;;;4.59;78.13;102638.91;5064668;27;20015;-68
2022/01/21 12:52:44;;;;;;;;;;;;;;;4.70;77.08;102631.53;5042825;27;19983;-68
2022/01/21 12:57:54;;;;;;;;;;;;;;;4.61;78.30;102626.59;5064356;27;20864;-67
2022/01/21 13:00:19;;;;;;;;;;;;;;;4.67;78.05;102626.41;5047110;27;20760;-67
2022/01/21 13:02:48;;;;;;;;;;;;;;;4.84;77.68;102622.34;5084458;27;19911;-67
2022/01/21 13:05:15;;;;;;;;;;;;;;;4.69;78.48;102628.97;5066983;27;19902;-67
2022/01/21 13:07:53;;;;;;;;;;;;;;;4.71;79.39;102630.66;5062144;27;20882;-67
2022/01/21 13:10:18;;;;;;;;;;;;;;;4.69;78.52;102618.50;5061181;27;19911;-68
2022/01/21 13:15:40;;;;;;;;;;;;;;;4.74;78.56;102620.03;5042473;27;19914;-67
2022/01/21 13:18:06;;;;;;;;;;;;;;;4.70;78.46;102631.53;5065456;27;19923;-69
2022/01/21 13:20:38;;;;;;;;;;;;;;;4.71;78.72;102635.00;5048750;27;20292;-68
2022/01/21 13:23:03;;;;;;;;;;;;;;;4.68;78.92;102632.50;5063931;27;19911;-68
2022/01/21 13:25:31;;;;;;;;;;;;;;;4.61;78.59;102622.22;5050584;27;20047;-68
2022/01/21 13:27:58;;;;;;;;;;;;;;;4.53;79.44;102628.66;5049562;27;19978;-68
2022/01/21 13:30:24;;;;;;;;;;;;;;;4.48;80.24;102620.91;5028637;27;20965;-66
2022/01/21 13:32:59;;;;;;;;;;;;;;;4.30;80.74;102617.13;5065929;27;19975;-66
2022/01/21 13:35:25;;;;;;;;;;;;;;;4.28;82.10;102608.47;5063603;27;19911;-69
2022/01/21 13:38:03;;;;;;;;;;;;;;;4.23;82.63;102608.63;5030820;27;20214;-66
2022/01/21 13:40:32;;;;;;;;;;;;;;;4.18;83.28;102601.81;5062592;27;19915;-68